Time;durP1;ratioP1;P1;durP2;ratioP2;P2;SDS_P1;SDS_P2;PMS_P1;PMS_P2;Temp;Humidity;BMP_temperature;BMP_pressure;BME280_temperature;BME280_humidity;BME280_pressure;Samples;Min_cycle;Max_cycle;Signal;HPM_P1;HPM_P2
2022/11/05 00:10:21;;;;;;;72.95;40.13;;;9.90;99.90;;;;;;5073787;28;20155;-80
2022/11/05 00:18:16;;;;;;;71.43;40.90;;;9.80;99.90;;;;;;5073717;28;20513;-80
2022/11/05 00:20:42;;;;;;;69.78;39.60;;;9.80;99.90;;;;;;5072221;28;20048;-80
2022/11/05 00:26:05;;;;;;;66.85;37.58;;;9.80;99.90;;;;;;5085049;28;20089;-80
2022/11/05 00:28:31;;;;;;;62.90;35.13;;;9.90;99.90;;;;;;5109272;28;20054;-80
2022/11/05 00:31:01;;;;;;;70.55;39.20;;;9.80;99.90;;;;;;5109085;28;20413;-80
2022/11/05 00:33:27;;;;;;;73.15;39.55;;;9.80;99.90;;;;;;5092144;28;20027;-81
2022/11/05 00:35:53;;;;;;;65.75;39.45;;;9.70;99.90;;;;;;5092994;28;20032;-81
2022/11/05 00:38:18;;;;;;;83.13;46.92;;;9.70;99.90;;;;;;5093460;28;20366;-80
2022/11/05 00:40:44;;;;;;;75.20;44.00;;;9.70;99.90;;;;;;5109171;28;20059;-80
2022/11/05 00:45:55;;;;;;;78.68;44.60;;;9.70;99.90;;;;;;5093604;28;20074;-80
2022/11/05 00:51:05;;;;;;;76.22;42.00;;;9.70;99.90;;;;;;5073182;28;20445;-80
2022/11/05 00:53:31;;;;;;;83.43;46.35;;;9.70;99.90;;;;;;5071790;28;20024;-80
2022/11/05 00:55:57;;;;;;;86.78;45.22;;;9.70;99.90;;;;;;5073028;28;20436;-80
2022/11/05 00:58:23;;;;;;;74.07;42.10;;;9.60;99.90;;;;;;5072406;28;20024;-80
2022/11/05 01:00:53;;;;;;;84.82;46.58;;;9.60;99.90;;;;;;5071710;28;20402;-80
2022/11/05 01:03:21;;;;;;;76.55;44.50;;;9.60;99.90;;;;;;5071667;28;20104;-79
2022/11/05 01:05:52;;;;;;;74.57;41.03;;;9.60;99.90;;;;;;5073010;28;20390;-80
2022/11/05 01:08:20;;;;;;;86.30;46.33;;;9.60;99.90;;;;;;5072909;28;20162;-80
2022/11/05 01:10:52;;;;;;;84.22;44.10;;;9.60;99.90;;;;;;5071667;28;20398;-80
2022/11/05 01:13:24;;;;;;;73.35;40.92;;;9.60;99.90;;;;;;5071657;28;20024;-81
2022/11/05 01:15:50;;;;;;;84.65;44.30;;;9.60;99.90;;;;;;5072913;28;20054;-80
2022/11/05 01:18:17;;;;;;;72.68;38.97;;;9.60;99.90;;;;;;5071502;28;20021;-81
2022/11/05 01:20:43;;;;;;;59.22;35.25;;;9.60;99.90;;;;;;5071592;28;20021;-80
2022/11/05 01:23:09;;;;;;;54.83;30.00;;;9.50;99.90;;;;;;5072818;28;20462;-81
2022/11/05 01:25:34;;;;;;;46.45;27.17;;;9.50;99.90;;;;;;5080736;28;20081;-81
2022/11/05 01:28:01;;;;;;;37.05;23.52;;;9.50;99.90;;;;;;5092906;28;20052;-80
2022/11/05 01:30:27;;;;;;;34.65;21.95;;;9.50;99.90;;;;;;5108510;28;20070;-80
2022/11/05 01:32:52;;;;;;;29.40;19.05;;;9.50;99.90;;;;;;5108461;28;20036;-80
2022/11/05 01:35:18;;;;;;;35.67;20.85;;;9.40;99.90;;;;;;5091483;28;20478;-79
2022/11/05 01:37:44;;;;;;;29.50;17.92;;;9.40;99.90;;;;;;5092828;28;20031;-80
2022/11/05 01:40:16;;;;;;;25.85;16.80;;;9.40;99.90;;;;;;5108433;28;20048;-80
2022/11/05 01:42:42;;;;;;;22.90;13.68;;;9.40;99.90;;;;;;5092836;28;20385;-81
2022/11/05 01:45:16;;;;;;;18.63;12.73;;;9.40;99.90;;;;;;5092699;28;20439;-81
2022/11/05 01:48:03;;;;;;;15.77;11.00;;;9.30;99.90;;;;;;5108466;28;20031;-79
2022/11/05 01:50:34;;;;;;;22.48;12.27;;;9.30;99.90;;;;;;5051025;28;20047;-82
2022/11/05 01:53:22;;;;;;;16.10;10.43;;;9.20;99.90;;;;;;5052450;28;20033;-82
2022/11/05 01:55:58;;;;;;;15.25;11.05;;;9.20;99.90;;;;;;5049126;28;20045;-79
2022/11/05 01:58:30;;;;;;;13.70;10.23;;;9.20;99.90;;;;;;5052551;28;20025;-81
2022/11/05 02:00:56;;;;;;;16.25;10.38;;;9.20;99.90;;;;;;5052545;28;20025;-79
2022/11/05 02:03:23;;;;;;;18.58;11.18;;;9.20;99.90;;;;;;5067841;28;20025;-81
2022/11/05 02:05:51;;;;;;;18.73;10.70;;;9.20;99.90;;;;;;5052350;28;20032;-79
2022/11/05 02:08:28;;;;;;;18.58;11.15;;;9.20;99.90;;;;;;5052360;28;20021;-79
2022/11/05 02:10:54;;;;;;;16.55;10.30;;;9.20;99.90;;;;;;5054121;28;20390;-81
2022/11/05 02:13:19;;;;;;;12.68;9.32;;;9.20;99.90;;;;;;5071301;28;20238;-79
2022/11/05 02:16:11;;;;;;;12.00;8.23;;;9.10;99.90;;;;;;5054466;28;20120;-81
2022/11/05 02:18:55;;;;;;;11.23;8.68;;;9.00;99.90;;;;;;5055955;28;20025;-79
2022/11/05 02:21:45;;;;;;;12.20;8.82;;;9.10;99.90;;;;;;5054569;28;20118;-81
2022/11/05 02:24:13;;;;;;;11.60;8.63;;;9.00;99.90;;;;;;5055644;28;20387;-81
2022/11/05 02:26:50;;;;;;;11.30;8.90;;;8.90;99.90;;;;;;5092724;28;20028;-82
2022/11/05 02:29:35;;;;;;;10.77;7.95;;;8.90;99.90;;;;;;5094569;28;20020;-79
2022/11/05 02:32:15;;;;;;;12.10;9.18;;;8.80;99.90;;;;;;5094308;28;20043;-79
2022/11/05 02:35:02;;;;;;;12.43;9.57;;;8.80;99.90;;;;;;5095690;28;20024;-81
2022/11/05 02:37:37;;;;;;;12.35;9.55;;;8.80;99.90;;;;;;5094437;28;20145;-82
2022/11/05 02:40:14;;;;;;;12.70;9.52;;;8.70;99.90;;;;;;5094150;28;20039;-79
2022/11/05 02:43:00;;;;;;;14.52;10.13;;;8.60;99.90;;;;;;5094265;28;20508;-79
2022/11/05 02:45:48;;;;;;;13.55;10.02;;;8.60;99.90;;;;;;5095335;28;20028;-79
2022/11/05 02:48:35;;;;;;;13.40;10.05;;;8.50;99.90;;;;;;5108888;28;20119;-81
2022/11/05 02:51:29;;;;;;;14.50;9.93;;;8.40;99.90;;;;;;5073758;28;20162;-79
2022/11/05 02:53:55;;;;;;;12.85;10.05;;;8.40;99.90;;;;;;5073904;28;20487;-80
2022/11/05 02:56:25;;;;;;;12.25;10.32;;;8.40;99.90;;;;;;5075059;28;20059;-79
2022/11/05 02:58:51;;;;;;;13.48;10.40;;;8.30;99.90;;;;;;5075037;28;20017;-79
2022/11/05 03:01:16;;;;;;;14.48;11.05;;;8.30;99.90;;;;;;5073483;28;20500;-79
2022/11/05 03:03:44;;;;;;;15.73;11.68;;;8.20;99.90;;;;;;5073779;28;20021;-79
2022/11/05 03:06:22;;;;;;;17.58;12.45;;;8.20;99.90;;;;;;5074749;28;20029;-79
2022/11/05 03:08:59;;;;;;;13.45;10.75;;;8.20;99.90;;;;;;5073552;28;20423;-79
2022/11/05 03:11:31;;;;;;;15.20;11.07;;;8.10;99.90;;;;;;5073343;28;20509;-79
2022/11/05 03:14:16;;;;;;;13.55;11.10;;;8.10;99.90;;;;;;5074759;28;20017;-79
2022/11/05 03:16:48;;;;;;;16.23;11.27;;;8.10;99.90;;;;;;5073369;28;20111;-79
2022/11/05 03:19:34;;;;;;;15.80;11.82;;;8.00;99.90;;;;;;5090242;28;20013;-81
2022/11/05 03:22:09;;;;;;;16.08;11.70;;;8.00;99.90;;;;;;5089961;28;20032;-79
2022/11/05 03:24:41;;;;;;;14.18;11.50;;;8.00;99.90;;;;;;5090114;28;20021;-79
2022/11/05 03:27:14;;;;;;;18.30;12.75;;;7.90;99.90;;;;;;5090093;28;20363;-79
2022/11/05 03:29:51;;;;;;;14.95;11.45;;;8.00;99.90;;;;;;5090009;28;20382;-79
2022/11/05 03:32:19;;;;;;;12.88;10.50;;;7.90;99.90;;;;;;5089831;28;20060;-79
2022/11/05 03:34:55;;;;;;;15.98;12.05;;;7.90;99.90;;;;;;5074384;28;20016;-82
2022/11/05 03:37:24;;;;;;;15.63;11.77;;;7.90;99.90;;;;;;5089899;28;20374;-82
2022/11/05 03:39:57;;;;;;;16.35;11.40;;;7.90;99.90;;;;;;5089565;28;20479;-79
2022/11/05 03:42:27;;;;;;;14.23;11.57;;;7.80;99.90;;;;;;5089657;28;20051;-79
2022/11/05 03:44:57;;;;;;;14.52;11.43;;;7.80;99.90;;;;;;5089749;28;20067;-82
2022/11/05 03:47:39;;;;;;;14.70;11.00;;;7.80;99.90;;;;;;5089938;28;20032;-82
2022/11/05 03:50:31;;;;;;;12.05;9.85;;;7.80;99.90;;;;;;5074035;28;20021;-79
2022/11/05 03:53:03;;;;;;;15.38;11.38;;;7.80;99.90;;;;;;5073969;28;20437;-82
2022/11/05 03:55:40;;;;;;;15.27;11.35;;;7.80;99.90;;;;;;5073995;28;20033;-81
2022/11/05 03:58:06;;;;;;;12.55;10.00;;;7.80;99.90;;;;;;5073931;28;20016;-82
2022/11/05 04:00:32;;;;;;;13.40;11.25;;;7.80;99.90;;;;;;5073923;28;20044;-79
2022/11/05 04:02:58;;;;;;;14.35;10.27;;;7.80;99.90;;;;;;5073638;28;20028;-79
2022/11/05 04:05:23;;;;;;;15.55;11.45;;;7.80;99.90;;;;;;5089298;28;20421;-79
2022/11/05 04:13:23;;;;;;;14.70;10.82;;;7.70;99.90;;;;;;5073955;28;20086;-82
2022/11/05 04:18:33;;;;;;;14.48;10.68;;;7.60;99.90;;;;;;5073991;28;20035;-82
2022/11/05 04:26:27;;;;;;;14.32;10.40;;;7.60;99.90;;;;;;5073686;28;20035;-79
2022/11/05 04:31:37;;;;;;;12.65;9.60;;;7.60;99.90;;;;;;5072529;28;20058;-82
2022/11/05 04:34:02;;;;;;;12.20;9.85;;;7.60;99.90;;;;;;5088904;28;20530;-79
2022/11/05 04:36:28;;;;;;;12.80;10.55;;;7.60;99.90;;;;;;5088882;28;20055;-82
2022/11/05 04:38:53;;;;;;;12.13;9.63;;;7.70;99.90;;;;;;5088877;28;20367;-79
2022/11/05 04:41:19;;;;;;;13.27;9.55;;;7.70;99.90;;;;;;5088771;28;20049;-82
2022/11/05 04:43:45;;;;;;;9.93;8.18;;;7.70;99.90;;;;;;5073251;28;20016;-81
2022/11/05 04:46:10;;;;;;;11.82;8.73;;;7.70;99.90;;;;;;5073255;28;20060;-82
2022/11/05 04:48:36;;;;;;;12.70;9.05;;;7.70;99.90;;;;;;5073124;28;20062;-79
2022/11/05 04:51:03;;;;;;;10.35;8.43;;;7.70;99.90;;;;;;5071859;28;20121;-79
2022/11/05 04:53:29;;;;;;;11.75;8.30;;;7.70;99.90;;;;;;5073046;28;20032;-79
2022/11/05 04:56:08;;;;;;;11.55;8.20;;;7.70;99.90;;;;;;5071796;28;20029;-79
2022/11/05 04:58:38;;;;;;;13.75;8.93;;;7.80;99.90;;;;;;5071619;28;20020;-79
2022/11/05 05:01:03;;;;;;;10.45;8.73;;;7.80;99.90;;;;;;5073043;28;20086;-79
2022/11/05 05:03:29;;;;;;;11.40;9.13;;;7.80;99.90;;;;;;5071677;28;20466;-82
2022/11/05 05:05:58;;;;;;;11.00;8.68;;;7.80;99.90;;;;;;5071765;28;20029;-82
2022/11/05 05:08:23;;;;;;;10.70;8.30;;;7.80;99.90;;;;;;5072808;28;20029;-79
2022/11/05 05:10:49;;;;;;;11.13;8.13;;;7.90;99.90;;;;;;5071588;28;20475;-81
2022/11/05 05:13:15;;;;;;;12.15;8.80;;;7.90;99.90;;;;;;5072807;28;20021;-79
2022/11/05 05:15:40;;;;;;;12.50;8.55;;;7.90;99.90;;;;;;5071680;28;20024;-79
2022/11/05 05:18:08;;;;;;;12.93;9.60;;;7.80;99.90;;;;;;5071556;28;20112;-81
2022/11/05 05:23:17;;;;;;;17.85;10.60;;;7.80;99.90;;;;;;5073177;28;20043;-81
2022/11/05 05:25:43;;;;;;;17.45;10.48;;;7.80;99.90;;;;;;5072728;28;20036;-81
2022/11/05 05:28:09;;;;;;;19.05;11.80;;;7.80;99.90;;;;;;5072774;28;20028;-82
2022/11/05 05:30:34;;;;;;;17.77;12.32;;;7.80;99.90;;;;;;5071415;28;20075;-81
2022/11/05 05:33:03;;;;;;;21.30;13.30;;;7.80;99.90;;;;;;5088135;28;20032;-82
2022/11/05 05:35:29;;;;;;;25.17;16.00;;;7.80;99.90;;;;;;5088199;28;20394;-79
2022/11/05 05:37:55;;;;;;;27.20;16.42;;;7.80;99.90;;;;;;5071268;28;20028;-82
2022/11/05 05:40:21;;;;;;;30.27;16.23;;;7.80;99.90;;;;;;5072535;28;20059;-82
2022/11/05 05:42:51;;;;;;;25.48;15.98;;;7.80;99.90;;;;;;5072691;28;20596;-79
2022/11/05 05:45:17;;;;;;;27.50;17.52;;;7.80;99.90;;;;;;5092091;28;20025;-82
2022/11/05 05:47:42;;;;;;;28.15;16.75;;;7.80;99.90;;;;;;5076308;28;20032;-81
2022/11/05 05:50:08;;;;;;;27.48;16.63;;;7.80;99.90;;;;;;5076309;28;20036;-82
2022/11/05 05:52:34;;;;;;;28.50;17.58;;;7.80;99.90;;;;;;5076179;28;20049;-82
2022/11/05 05:54:59;;;;;;;41.00;21.65;;;7.80;99.90;;;;;;5087029;28;20427;-82
2022/11/05 05:57:25;;;;;;;33.58;20.85;;;7.80;99.90;;;;;;5096387;28;20093;-79
2022/11/05 05:59:50;;;;;;;40.53;21.58;;;7.80;99.90;;;;;;5096397;28;20027;-79
2022/11/05 06:02:16;;;;;;;36.00;20.73;;;7.80;99.90;;;;;;5096289;28;20024;-79
2022/11/05 06:04:41;;;;;;;35.42;20.38;;;7.80;99.90;;;;;;5111985;28;20359;-79
2022/11/05 06:07:07;;;;;;;35.40;18.98;;;7.80;99.90;;;;;;5096304;28;20024;-83
2022/11/05 06:09:33;;;;;;;34.97;19.25;;;7.70;99.90;;;;;;5096270;28;20051;-79
2022/11/05 06:11:58;;;;;;;33.50;17.20;;;7.70;99.90;;;;;;5094884;28;20032;-80
2022/11/05 06:14:24;;;;;;;33.60;18.45;;;7.70;99.90;;;;;;5111652;28;20024;-82
2022/11/05 06:16:49;;;;;;;31.50;17.33;;;7.80;99.90;;;;;;5096267;28;20362;-79
2022/11/05 06:19:15;;;;;;;35.38;18.42;;;7.80;99.90;;;;;;5105466;28;20047;-81
2022/11/05 06:21:40;;;;;;;38.45;18.92;;;7.70;99.90;;;;;;5071629;28;20467;-80
2022/11/05 06:24:06;;;;;;;38.15;19.00;;;7.70;99.90;;;;;;5069672;28;20133;-81
2022/11/05 06:26:32;;;;;;;41.95;20.30;;;7.80;99.90;;;;;;5077254;28;20031;-80
2022/11/05 06:28:58;;;;;;;39.90;20.23;;;7.80;99.90;;;;;;5074393;28;20024;-80
2022/11/05 06:31:23;;;;;;;39.60;19.33;;;7.80;99.90;;;;;;5066854;28;20111;-80
2022/11/05 06:33:49;;;;;;;39.95;19.02;;;7.80;99.90;;;;;;5071517;28;20021;-79
2022/11/05 06:36:17;;;;;;;44.10;20.90;;;7.80;99.90;;;;;;5060360;28;20443;-82
2022/11/05 06:38:42;;;;;;;39.88;20.48;;;7.80;99.90;;;;;;5065748;28;20055;-80
2022/11/05 06:41:08;;;;;;;44.95;22.70;;;7.80;99.90;;;;;;5073663;28;20053;-82
2022/11/05 06:43:34;;;;;;;42.40;20.48;;;7.80;99.90;;;;;;5073259;28;20465;-79
2022/11/05 06:46:01;;;;;;;40.75;22.75;;;7.80;99.90;;;;;;5075729;28;20036;-82
2022/11/05 06:48:27;;;;;;;35.40;19.00;;;7.80;99.90;;;;;;5073248;28;20017;-81
2022/11/05 06:50:53;;;;;;;40.15;20.45;;;7.80;99.90;;;;;;5066297;28;20024;-83
2022/11/05 06:53:19;;;;;;;39.20;19.70;;;7.90;99.90;;;;;;5061139;28;20436;-83
2022/11/05 06:55:46;;;;;;;46.67;20.65;;;7.80;99.90;;;;;;5069822;28;20059;-82
2022/11/05 06:58:13;;;;;;;47.40;22.48;;;7.90;99.90;;;;;;5072602;28;20025;-79
2022/11/05 07:00:39;;;;;;;42.38;19.65;;;7.90;99.90;;;;;;5072300;28;20451;-82
2022/11/05 07:03:06;;;;;;;39.17;18.48;;;7.80;99.90;;;;;;5054471;28;20024;-79
2022/11/05 07:05:34;;;;;;;40.88;20.65;;;7.80;99.90;;;;;;5066184;28;20025;-81
2022/11/05 07:07:59;;;;;;;37.72;19.08;;;7.80;99.90;;;;;;5062265;28;20035;-82
2022/11/05 07:10:25;;;;;;;36.95;17.85;;;7.80;99.90;;;;;;5071771;28;20025;-79
2022/11/05 07:12:51;;;;;;;35.85;17.75;;;7.80;99.90;;;;;;5060749;28;20028;-82
2022/11/05 07:15:16;;;;;;;37.50;17.92;;;7.80;99.90;;;;;;5081188;28;20024;-82
2022/11/05 07:17:42;;;;;;;41.22;18.27;;;7.70;99.90;;;;;;5069765;28;20025;-82
2022/11/05 07:20:08;;;;;;;38.22;19.48;;;7.70;99.90;;;;;;5066160;28;20028;-82
2022/11/05 07:22:34;;;;;;;36.33;18.95;;;7.70;99.90;;;;;;5066619;28;20493;-82
2022/11/05 07:25:00;;;;;;;37.35;18.73;;;7.60;99.90;;;;;;5085381;28;20027;-82
2022/11/05 07:27:25;;;;;;;42.05;21.02;;;7.60;99.90;;;;;;5092430;28;20470;-81
2022/11/05 07:29:51;;;;;;;33.85;19.17;;;7.60;99.90;;;;;;5072508;28;20032;-79
2022/11/05 07:32:17;;;;;;;35.40;18.02;;;7.50;99.90;;;;;;5072368;28;20035;-80
2022/11/05 07:34:42;;;;;;;39.97;19.38;;;7.50;99.90;;;;;;5063625;28;20021;-80
2022/11/05 07:37:08;;;;;;;40.03;18.58;;;7.50;99.90;;;;;;5053821;28;20422;-80
2022/11/05 07:39:34;;;;;;;38.08;19.98;;;7.50;99.90;;;;;;5062571;28;20059;-82
2022/11/05 07:41:59;;;;;;;39.85;21.40;;;7.50;99.90;;;;;;5055685;28;20025;-80
2022/11/05 07:44:25;;;;;;;41.72;19.77;;;7.50;99.90;;;;;;5068126;28;20036;-83
2022/11/05 07:46:50;;;;;;;40.83;20.33;;;7.50;99.90;;;;;;5077079;28;20489;-82
2022/11/05 07:49:17;;;;;;;40.92;19.40;;;7.50;99.90;;;;;;5073396;28;20029;-83
2022/11/05 07:51:42;;;;;;;42.40;20.02;;;7.50;99.90;;;;;;5072640;28;20116;-81
2022/11/05 07:54:08;;;;;;;39.50;19.63;;;7.50;99.90;;;;;;5057628;28;20117;-82
2022/11/05 07:56:34;;;;;;;39.88;20.55;;;7.50;99.90;;;;;;5071389;28;20016;-80
2022/11/05 07:59:00;;;;;;;40.80;19.77;;;7.40;99.90;;;;;;5070280;28;20066;-81
2022/11/05 08:01:25;;;;;;;46.00;20.02;;;7.40;99.90;;;;;;5088779;28;20115;-81
2022/11/05 08:03:51;;;;;;;40.45;20.92;;;7.40;99.90;;;;;;5071770;28;20048;-82
2022/11/05 08:06:16;;;;;;;40.80;20.33;;;7.50;99.90;;;;;;5071902;28;20020;-81
2022/11/05 08:08:42;;;;;;;36.80;18.42;;;7.40;99.90;;;;;;5073171;28;20029;-80
2022/11/05 08:11:09;;;;;;;35.70;18.40;;;7.50;99.90;;;;;;5073007;28;20030;-80
2022/11/05 08:13:35;;;;;;;37.15;19.83;;;7.50;99.90;;;;;;5088721;28;20437;-79
2022/11/05 08:16:01;;;;;;;39.42;19.30;;;7.50;99.90;;;;;;5073049;28;20028;-79
2022/11/05 08:18:31;;;;;;;38.75;19.80;;;7.50;99.90;;;;;;5072945;28;20387;-79
2022/11/05 08:20:58;;;;;;;46.03;21.27;;;7.50;99.90;;;;;;5073076;28;20016;-79
2022/11/05 08:23:28;;;;;;;35.03;19.08;;;7.50;99.90;;;;;;5072803;28;20109;-82
2022/11/05 08:25:54;;;;;;;38.38;20.98;;;7.60;99.90;;;;;;5075980;28;20496;-82
2022/11/05 08:28:22;;;;;;;40.95;21.13;;;7.60;99.90;;;;;;5073246;28;20031;-82
2022/11/05 08:30:49;;;;;;;39.50;20.58;;;7.60;99.90;;;;;;5088577;28;20032;-82
2022/11/05 08:33:15;;;;;;;36.85;19.75;;;7.60;99.90;;;;;;5071304;28;20028;-81
2022/11/05 08:35:41;;;;;;;33.78;17.60;;;7.60;99.90;;;;;;5072939;28;20024;-78
2022/11/05 08:38:12;;;;;;;35.08;18.92;;;7.60;99.90;;;;;;5088699;28;20158;-81
2022/11/05 08:40:38;;;;;;;32.97;17.58;;;7.60;99.90;;;;;;5087406;28;20135;-80
2022/11/05 08:43:05;;;;;;;35.70;18.60;;;7.60;99.90;;;;;;5086967;28;20427;-82
2022/11/05 08:45:32;;;;;;;29.50;15.40;;;7.60;99.90;;;;;;5071444;28;20452;-81
2022/11/05 08:48:07;;;;;;;31.08;17.77;;;7.60;99.90;;;;;;5086967;28;20050;-80
2022/11/05 08:50:34;;;;;;;37.40;18.48;;;7.70;99.90;;;;;;5087194;28;20097;-81
2022/11/05 08:53:00;;;;;;;34.15;18.92;;;7.70;99.90;;;;;;5087484;28;20044;-80
2022/11/05 08:55:26;;;;;;;29.75;16.20;;;7.60;99.90;;;;;;5087520;28;20017;-82
2022/11/05 08:57:59;;;;;;;30.02;18.13;;;7.70;99.90;;;;;;5061226;28;20143;-82
2022/11/05 09:00:27;;;;;;;34.42;18.10;;;7.70;99.90;;;;;;5063016;28;20024;-79
2022/11/05 09:02:52;;;;;;;33.25;18.05;;;7.70;99.90;;;;;;5072912;28;20363;-82
2022/11/05 09:05:18;;;;;;;32.95;17.63;;;7.70;99.90;;;;;;5088185;28;20082;-80
2022/11/05 09:07:45;;;;;;;31.58;18.02;;;7.70;99.90;;;;;;5072819;28;20024;-80
2022/11/05 09:10:11;;;;;;;31.83;16.33;;;7.70;99.90;;;;;;5088139;28;20024;-80
2022/11/05 09:12:37;;;;;;;29.80;16.73;;;7.70;99.90;;;;;;5087928;28;20029;-80
2022/11/05 09:15:03;;;;;;;26.80;16.73;;;7.70;99.90;;;;;;5072176;28;20043;-80
2022/11/05 09:17:29;;;;;;;25.90;14.48;;;7.70;99.90;;;;;;5072688;28;20024;-79
2022/11/05 09:19:54;;;;;;;27.83;16.55;;;7.70;99.90;;;;;;5075413;28;20039;-79
2022/11/05 09:22:20;;;;;;;27.63;14.52;;;7.70;99.90;;;;;;5087006;28;20028;-78
2022/11/05 09:24:45;;;;;;;29.23;15.25;;;7.70;99.90;;;;;;5076693;28;20062;-80
2022/11/05 09:27:13;;;;;;;30.75;16.08;;;7.80;99.90;;;;;;5099214;28;20028;-80
2022/11/05 09:29:40;;;;;;;30.30;16.83;;;7.80;99.90;;;;;;5097630;28;20033;-79
2022/11/05 09:32:06;;;;;;;26.98;15.07;;;7.80;99.90;;;;;;5083388;28;20040;-80
2022/11/05 09:34:31;;;;;;;24.80;12.52;;;7.90;99.90;;;;;;5091316;28;20031;-80
2022/11/05 09:36:57;;;;;;;22.15;13.57;;;7.90;99.90;;;;;;5109266;28;20032;-81
2022/11/05 09:39:23;;;;;;;25.92;14.35;;;7.90;99.90;;;;;;5073807;28;20410;-82
2022/11/05 09:41:52;;;;;;;25.20;12.05;;;7.90;99.90;;;;;;5110641;28;20082;-83
2022/11/05 09:44:41;;;;;;;17.02;10.68;;;7.90;99.90;;;;;;5109572;28;20020;-79
2022/11/05 09:47:12;;;;;;;20.60;11.88;;;8.00;99.90;;;;;;5082450;28;20025;-80
2022/11/05 09:49:42;;;;;;;19.80;12.00;;;7.90;99.90;;;;;;5076491;28;20073;-80
2022/11/05 09:52:13;;;;;;;24.33;13.38;;;8.00;99.90;;;;;;5084866;28;20051;-80
2022/11/05 09:54:39;;;;;;;14.18;8.95;;;8.00;99.90;;;;;;5101826;28;20436;-81
2022/11/05 09:57:09;;;;;;;18.38;10.88;;;8.00;99.90;;;;;;5081733;28;20039;-80
2022/11/05 10:00:07;;;;;;;16.83;9.23;;;8.00;99.90;;;;;;5075804;28;20048;-79
2022/11/05 10:02:40;;;;;;;17.52;9.43;;;8.10;99.90;;;;;;5072800;28;20028;-79
2022/11/05 10:05:10;;;;;;;14.73;8.75;;;8.10;99.90;;;;;;5077892;28;20021;-79
2022/11/05 10:08:10;;;;;;;14.05;8.30;;;8.20;99.90;;;;;;5077279;28;20120;-79
2022/11/05 10:10:46;;;;;;;14.32;9.02;;;8.20;99.90;;;;;;5089097;28;20028;-79
2022/11/05 10:13:25;;;;;;;16.35;9.20;;;8.20;99.90;;;;;;5075551;28;20135;-76
2022/11/05 10:16:21;;;;;;;12.75;8.07;;;8.20;99.90;;;;;;5074066;28;20019;-79
2022/11/05 10:18:52;;;;;;;12.02;7.88;;;8.20;99.90;;;;;;5074249;28;20040;-78
2022/11/05 10:21:19;;;;;;;13.98;8.45;;;8.20;99.90;;;;;;5073155;28;20035;-77
2022/11/05 10:23:46;;;;;;;12.13;8.43;;;8.30;99.90;;;;;;5073727;28;20024;-77
2022/11/05 10:26:17;;;;;;;10.65;6.82;;;8.20;99.90;;;;;;5089865;28;20020;-79
2022/11/05 10:28:42;;;;;;;12.32;7.55;;;8.30;99.90;;;;;;5093926;28;20016;-79
2022/11/05 10:31:13;;;;;;;11.18;7.43;;;8.30;99.90;;;;;;5091662;28;20032;-78
2022/11/05 10:33:45;;;;;;;14.05;8.02;;;8.30;99.90;;;;;;5073419;28;20123;-77
2022/11/05 10:36:17;;;;;;;14.00;8.30;;;8.30;99.90;;;;;;5071254;28;20021;-79
2022/11/05 10:38:42;;;;;;;14.18;9.10;;;8.30;99.90;;;;;;5069745;28;20119;-79
2022/11/05 10:41:32;;;;;;;13.02;9.35;;;8.30;99.90;;;;;;5072044;28;20198;-79
2022/11/05 10:44:20;;;;;;;10.45;7.93;;;8.40;99.90;;;;;;5072069;28;20028;-76
2022/11/05 10:47:41;;;;;;;10.98;6.22;;;8.40;99.90;;;;;;5064227;28;20119;-77
2022/11/05 10:50:25;;;;;;;8.82;6.35;;;8.40;99.90;;;;;;5060044;28;20150;-79
2022/11/05 10:52:50;;;;;;;11.50;7.68;;;8.40;99.90;;;;;;5074390;28;20032;-77
2022/11/05 10:55:20;;;;;;;14.13;8.15;;;8.40;99.90;;;;;;5069669;28;20107;-77
2022/11/05 10:57:48;;;;;;;10.20;7.28;;;8.40;99.90;;;;;;5073876;28;20052;-76
2022/11/05 11:00:14;;;;;;;14.20;7.63;;;8.40;99.90;;;;;;5066687;28;20023;-77
2022/11/05 11:02:41;;;;;;;17.55;9.43;;;8.40;99.90;;;;;;5070500;28;20029;-77
2022/11/05 11:05:09;;;;;;;12.75;7.63;;;8.40;99.90;;;;;;5072252;28;20052;-77
2022/11/05 11:07:35;;;;;;;14.70;8.27;;;8.40;99.90;;;;;;5066207;28;20458;-77
2022/11/05 11:10:02;;;;;;;44.38;25.38;;;8.30;99.90;;;;;;5090832;28;20028;-77
2022/11/05 11:12:41;;;;;;;55.75;33.60;;;8.40;99.90;;;;;;5102045;28;20513;-78
2022/11/05 11:15:07;;;;;;;47.03;26.95;;;8.40;99.90;;;;;;5092774;28;20482;-77
2022/11/05 11:17:32;;;;;;;30.63;18.17;;;8.50;99.90;;;;;;5092523;28;20051;-77
2022/11/05 11:20:21;;;;;;;24.75;13.60;;;8.50;99.90;;;;;;5093119;28;20063;-77
2022/11/05 11:23:13;;;;;;;17.85;10.98;;;8.40;99.90;;;;;;5085768;28;20039;-79
2022/11/05 11:25:52;;;;;;;26.52;14.63;;;8.40;99.90;;;;;;5080347;28;20020;-76
2022/11/05 11:28:30;;;;;;;26.23;14.00;;;8.40;99.90;;;;;;5087580;28;20111;-77
2022/11/05 11:31:15;;;;;;;31.17;18.00;;;8.40;99.90;;;;;;5076168;28;20063;-78
2022/11/05 11:33:45;;;;;;;59.78;35.55;;;8.40;99.90;;;;;;5072465;28;20501;-78
2022/11/05 11:36:12;;;;;;;27.58;19.33;;;8.40;99.90;;;;;;5075525;28;20033;-79
2022/11/05 11:38:38;;;;;;;11.82;8.20;;;8.40;99.90;;;;;;5073046;28;20047;-78
2022/11/05 11:41:27;;;;;;;10.15;7.07;;;8.40;99.90;;;;;;5076077;28;20070;-79
2022/11/05 11:43:58;;;;;;;11.57;6.20;;;8.40;99.90;;;;;;5082715;28;20526;-81
2022/11/05 11:46:24;;;;;;;16.98;10.80;;;8.40;99.90;;;;;;5090675;28;20024;-81
2022/11/05 11:48:50;;;;;;;29.48;17.88;;;8.40;99.90;;;;;;5107570;28;20035;-81
2022/11/05 11:51:35;;;;;;;47.00;27.83;;;8.30;99.90;;;;;;5107573;28;20035;-79
2022/11/05 11:54:02;;;;;;;8.82;6.25;;;8.40;99.90;;;;;;5090545;28;20032;-79
2022/11/05 11:56:29;;;;;;;11.60;7.47;;;8.40;99.90;;;;;;5072920;28;20028;-80
2022/11/05 11:58:59;;;;;;;12.18;7.63;;;8.30;99.90;;;;;;5077366;28;20107;-79
2022/11/05 12:01:33;;;;;;;15.15;7.65;;;8.30;99.90;;;;;;5090245;28;20383;-80
2022/11/05 12:04:07;;;;;;;14.30;7.50;;;8.40;99.90;;;;;;5072254;28;20036;-79
2022/11/05 12:06:43;;;;;;;14.93;8.82;;;8.40;99.90;;;;;;5089584;28;20115;-78
2022/11/05 12:09:30;;;;;;;12.63;8.35;;;8.40;99.90;;;;;;5090438;28;20118;-79
2022/11/05 12:12:14;;;;;;;15.80;10.10;;;8.40;99.90;;;;;;5079464;28;20040;-80
2022/11/05 12:14:57;;;;;;;13.23;7.82;;;8.30;99.90;;;;;;5069083;28;20036;-80
2022/11/05 12:17:34;;;;;;;10.68;7.32;;;8.30;99.90;;;;;;5071482;28;20029;-81
2022/11/05 12:20:32;;;;;;;12.23;9.25;;;8.30;99.90;;;;;;5070458;28;20035;-81
2022/11/05 12:23:31;;;;;;;11.45;7.97;;;8.30;99.90;;;;;;5080283;28;20500;-80
2022/11/05 12:26:16;;;;;;;9.70;7.47;;;8.30;99.90;;;;;;5082848;28;20028;-80
2022/11/05 12:29:13;;;;;;;10.48;7.88;;;8.20;99.90;;;;;;5092453;28;20130;-80
2022/11/05 12:31:58;;;;;;;10.50;7.97;;;8.20;99.90;;;;;;5092393;28;20031;-79
2022/11/05 12:34:45;;;;;;;15.55;10.32;;;8.20;99.90;;;;;;5090805;28;20502;-79
2022/11/05 12:37:26;;;;;;;14.00;10.20;;;8.30;99.90;;;;;;5108060;28;20024;-79
2022/11/05 12:40:28;;;;;;;12.60;8.27;;;8.30;99.90;;;;;;5090203;28;20528;-79
2022/11/05 12:43:18;;;;;;;13.88;10.45;;;8.20;99.90;;;;;;5090274;28;20135;-80
2022/11/05 12:46:00;;;;;;;14.10;8.88;;;8.20;99.90;;;;;;5090925;28;20036;-80
2022/11/05 12:48:37;;;;;;;16.60;9.90;;;8.20;99.90;;;;;;5090753;28;20109;-79
2022/11/05 12:51:12;;;;;;;17.40;10.93;;;8.20;99.90;;;;;;5082606;28;20039;-81
2022/11/05 12:54:19;;;;;;;15.82;11.75;;;8.20;99.90;;;;;;5090267;28;20032;-78
2022/11/05 12:56:56;;;;;;;18.63;11.25;;;8.20;99.90;;;;;;5107920;28;20020;-78
2022/11/05 12:59:38;;;;;;;17.90;11.75;;;8.20;99.90;;;;;;5089259;28;20059;-77
2022/11/05 13:02:21;;;;;;;16.83;11.70;;;8.20;99.90;;;;;;5070489;28;20167;-77
2022/11/05 13:04:56;;;;;;;21.35;11.95;;;8.30;99.90;;;;;;5071934;28;20398;-77
2022/11/05 13:07:37;;;;;;;17.58;11.73;;;8.20;99.90;;;;;;5074025;28;20023;-77
2022/11/05 13:10:29;;;;;;;22.30;12.52;;;8.20;99.90;;;;;;5073510;28;20432;-78
2022/11/05 13:13:17;;;;;;;18.50;11.45;;;8.20;99.90;;;;;;5076905;28;20044;-79
2022/11/05 13:16:15;;;;;;;23.35;14.57;;;8.10;99.90;;;;;;5073347;28;20021;-78
2022/11/05 13:18:48;;;;;;;21.33;13.95;;;8.10;99.90;;;;;;5060848;28;20542;-77
2022/11/05 13:21:16;;;;;;;19.20;13.25;;;8.20;99.90;;;;;;5094477;28;20021;-78
2022/11/05 13:24:12;;;;;;;29.30;17.17;;;8.10;99.90;;;;;;5071870;28;20043;-78
2022/11/05 13:27:00;;;;;;;29.17;17.80;;;8.20;99.90;;;;;;5067145;28;20490;-77
2022/11/05 13:29:51;;;;;;;21.08;13.27;;;8.20;99.90;;;;;;5071292;28;20094;-77
2022/11/05 13:32:28;;;;;;;20.45;13.00;;;8.20;99.90;;;;;;5104176;28;20036;-77
2022/11/05 13:35:02;;;;;;;20.58;12.50;;;8.20;99.90;;;;;;5090319;28;20386;-77
2022/11/05 13:40:35;;;;;;;23.00;15.55;;;8.30;99.90;;;;;;5088972;28;20073;-78
2022/11/05 13:43:45;;;;;;;26.02;15.32;;;8.30;99.90;;;;;;5079793;28;20028;-78
2022/11/05 13:46:32;;;;;;;24.55;12.98;;;8.30;99.90;;;;;;5079830;28;20481;-80
2022/11/05 13:49:15;;;;;;;24.35;15.52;;;8.30;99.90;;;;;;5059037;28;20041;-79